createdAt,value
2018-08-28T00:01:24.613Z,3.00
2018-08-28T00:04:04.823Z,3.20
2018-08-28T00:06:41.181Z,3.50
2018-08-28T00:09:10.831Z,3.37
2018-08-28T00:11:45.408Z,3.08
2018-08-28T00:14:13.825Z,2.90
2018-08-28T00:16:48.109Z,3.30
2018-08-28T00:19:32.997Z,2.72
2018-08-28T00:22:18.422Z,2.80
2018-08-28T00:24:46.713Z,3.02
2018-08-28T00:30:21.817Z,3.27
2018-08-28T00:32:53.232Z,3.10
2018-08-28T00:35:27.469Z,2.87
2018-08-28T00:38:01.673Z,2.67
2018-08-28T00:40:43.157Z,2.52
2018-08-28T00:43:12.568Z,3.20
2018-08-28T00:45:55.900Z,2.98
2018-08-28T00:48:27.911Z,2.87
2018-08-28T00:51:13.389Z,3.45
2018-08-28T00:56:33.604Z,3.20
2018-08-28T00:59:25.132Z,2.90
2018-08-28T01:01:59.299Z,3.05
2018-08-28T01:04:35.316Z,3.40
2018-08-28T01:07:14.099Z,2.80
2018-08-28T01:15:39.557Z,2.92
2018-08-28T01:18:27.729Z,3.15
2018-08-28T01:21:12.488Z,3.25
2018-08-28T01:23:58.542Z,3.50
2018-08-28T01:26:27.721Z,3.47
2018-08-28T01:31:53.976Z,3.00
2018-08-28T01:34:31.841Z,3.05
2018-08-28T01:37:02.412Z,3.37
2018-08-28T01:39:34.462Z,3.92
2018-08-28T01:45:14.307Z,3.60
2018-08-28T01:47:54.741Z,3.17
2018-08-28T01:50:26.566Z,2.87
2018-08-28T02:01:46.666Z,3.12
2018-08-28T02:04:15.249Z,3.10
2018-08-28T02:06:44.541Z,3.47
2018-08-28T02:14:57.115Z,3.40
2018-08-28T02:17:25.981Z,3.55
2018-08-28T02:19:57.687Z,3.20
2018-08-28T02:22:49.135Z,3.02
2018-08-28T02:25:23.653Z,3.62
2018-08-28T02:27:53.691Z,3.08
2018-08-28T02:39:02.124Z,3.37
2018-08-28T02:41:49.386Z,3.12
2018-08-28T02:44:32.236Z,3.90
2018-08-28T02:50:07.565Z,3.37
2018-08-28T02:52:35.925Z,3.35
2018-08-28T02:55:10.137Z,3.47
2018-08-28T02:57:45.693Z,3.70
2018-08-28T03:00:19.390Z,3.08
2018-08-28T03:03:11.307Z,4.08
2018-08-28T03:05:51.401Z,4.22
2018-08-28T03:08:20.425Z,3.77
2018-08-28T03:11:06.892Z,3.80
2018-08-28T03:13:38.569Z,3.47
2018-08-28T03:16:08.520Z,3.90
2018-08-28T03:18:37.077Z,4.17
2018-08-28T03:21:05.955Z,3.85
2018-08-28T03:23:34.670Z,3.58
2018-08-28T03:26:03.513Z,3.90
2018-08-28T03:28:38.914Z,4.58
2018-08-28T03:31:09.573Z,5.22
2018-08-28T03:33:41.098Z,5.67
2018-08-28T03:36:15.400Z,5.35
2018-08-28T03:38:46.569Z,4.92
2018-08-28T03:41:21.053Z,5.40
2018-08-28T03:44:07.368Z,4.65
2018-08-28T03:46:36.946Z,4.55
2018-08-28T03:49:13.120Z,4.53
2018-08-28T03:51:46.956Z,5.40
2018-08-28T03:54:27.143Z,5.17
2018-08-28T03:57:12.405Z,4.75
2018-08-28T03:59:43.965Z,5.08
2018-08-28T04:02:18.181Z,4.67
2018-08-28T04:04:49.628Z,5.22
2018-08-28T04:07:19.366Z,4.50
2018-08-28T04:09:49.041Z,4.62
2018-08-28T04:12:32.305Z,4.80
2018-08-28T04:15:19.522Z,4.53
2018-08-28T04:17:50.182Z,4.33
2018-08-28T04:20:20.469Z,4.67
2018-08-28T04:23:02.276Z,4.80
2018-08-28T04:25:33.452Z,5.22
2018-08-28T04:28:07.675Z,5.10
2018-08-28T04:30:39.050Z,4.60
2018-08-28T04:33:13.223Z,5.55
2018-08-28T04:35:44.342Z,5.42
2018-08-28T04:38:28.480Z,5.05
2018-08-28T04:40:56.809Z,5.03
2018-08-28T04:43:28.534Z,4.62
2018-08-28T04:45:57.857Z,5.17
2018-08-28T04:48:29.492Z,5.30
2018-08-28T04:53:59.126Z,5.78
2018-08-28T04:59:22.109Z,5.72
2018-08-28T05:04:48.981Z,5.10
2018-08-28T05:07:29.172Z,5.75
2018-08-28T05:09:58.290Z,5.80
2018-08-28T05:12:29.853Z,5.97
2018-08-28T05:15:04.094Z,5.50
2018-08-28T05:17:33.488Z,5.75
2018-08-28T05:20:07.404Z,5.10
2018-08-28T05:22:51.835Z,5.92
2018-08-28T05:25:26.172Z,5.78
2018-08-28T05:27:57.521Z,6.17
2018-08-28T05:30:43.877Z,5.70
2018-08-28T05:33:15.052Z,6.28
2018-08-28T05:35:43.790Z,6.33
2018-08-28T05:38:28.544Z,6.12
2018-08-28T05:41:12.756Z,5.80
2018-08-28T05:43:45.905Z,6.30
2018-08-28T05:46:31.939Z,5.85
2018-08-28T05:49:20.292Z,6.10
2018-08-28T05:51:49.506Z,6.20
2018-08-28T05:54:23.736Z,6.17
2018-08-28T05:56:55.053Z,6.17
2018-08-28T05:59:23.970Z,5.78
2018-08-28T06:01:58.117Z,6.12
2018-08-28T06:04:29.489Z,6.70
2018-08-28T06:06:58.326Z,5.75
2018-08-28T06:09:28.223Z,6.45
2018-08-28T06:11:57.936Z,6.28
2018-08-28T06:14:34.173Z,6.30
2018-08-28T06:17:03.322Z,6.92
2018-08-28T06:19:37.802Z,7.37
2018-08-28T06:22:06.269Z,7.37
2018-08-28T06:24:35.130Z,7.03
2018-08-28T06:27:04.160Z,7.10
2018-08-28T06:29:34.141Z,7.37
2018-08-28T06:32:08.494Z,6.78
2018-08-28T06:34:36.945Z,6.95
2018-08-28T06:37:06.084Z,7.08
2018-08-28T06:39:35.083Z,6.67
2018-08-28T06:42:07.132Z,6.50
2018-08-28T06:44:41.402Z,6.75
2018-08-28T06:47:31.003Z,6.45
2018-08-28T06:50:07.873Z,6.33
2018-08-28T06:52:36.682Z,6.65
2018-08-28T06:55:11.033Z,6.85
2018-08-28T06:57:48.905Z,6.22
2018-08-28T07:00:20.299Z,5.80
2018-08-28T07:02:49.445Z,5.70
2018-08-28T07:05:33.204Z,6.08
2018-08-28T07:08:07.601Z,5.90
2018-08-28T07:10:35.984Z,6.25
2018-08-28T07:13:05.149Z,5.80
2018-08-28T07:18:28.733Z,5.72
2018-08-28T07:21:02.919Z,5.87
2018-08-28T07:23:43.210Z,5.97
2018-08-28T07:26:29.237Z,5.92
2018-08-28T07:28:59.337Z,5.25
2018-08-28T07:31:33.722Z,4.87
2018-08-28T07:34:02.343Z,4.47
2018-08-28T07:36:30.910Z,4.50
2018-08-28T07:39:16.086Z,4.45
2018-08-28T07:42:02.150Z,3.70
2018-08-28T07:44:42.424Z,4.40
2018-08-28T07:47:31.445Z,3.30
2018-08-28T07:50:12.713Z,3.00
2018-08-28T07:52:44.498Z,4.08
2018-08-28T07:55:30.819Z,4.05
2018-08-28T07:58:02.320Z,3.77
2018-08-28T08:00:36.797Z,3.35
2018-08-28T08:03:07.948Z,2.90
2018-08-28T08:05:37.688Z,3.50
2018-08-28T08:08:09.716Z,3.02
2018-08-28T08:10:38.169Z,2.83
2018-08-28T08:13:07.089Z,2.47
2018-08-28T08:15:38.880Z,2.45
2018-08-28T08:18:13.273Z,2.62
2018-08-28T08:20:41.833Z,2.55
2018-08-28T08:23:10.615Z,2.17
2018-08-28T08:25:55.764Z,2.42
2018-08-28T08:28:27.483Z,2.72
2018-08-28T08:30:56.134Z,2.65
2018-08-28T08:33:27.245Z,2.60
2018-08-28T08:36:08.166Z,2.45
2018-08-28T08:38:54.942Z,2.15
2018-08-28T08:41:27.028Z,1.90
2018-08-28T08:44:03.235Z,2.05
2018-08-28T08:46:32.352Z,2.10
2018-08-28T08:49:02.172Z,2.00
2018-08-28T08:51:30.978Z,1.80
2018-08-28T08:54:01.109Z,1.82
2018-08-28T08:56:32.860Z,1.60
2018-08-28T08:59:18.710Z,2.00
2018-08-28T09:01:50.474Z,1.55
2018-08-28T09:04:37.172Z,1.77
2018-08-28T09:07:08.862Z,1.87
2018-08-28T09:09:37.894Z,2.10
2018-08-28T09:12:09.778Z,2.00
2018-08-28T09:14:44.062Z,1.98
2018-08-28T09:17:13.366Z,1.77
2018-08-28T09:19:42.092Z,1.67
2018-08-28T09:22:12.072Z,1.82
2018-08-28T09:24:46.300Z,1.60
2018-08-28T09:27:15.573Z,1.80
2018-08-28T09:29:45.330Z,1.80
2018-08-28T09:32:26.212Z,1.85
2018-08-28T09:34:57.941Z,2.00
2018-08-28T09:37:26.896Z,1.57
2018-08-28T09:39:58.652Z,1.62
2018-08-28T09:42:27.504Z,1.87
2018-08-28T09:45:03.849Z,1.92
2018-08-28T09:47:39.496Z,2.30
2018-08-28T09:58:49.324Z,2.00
2018-08-28T10:04:10.372Z,2.50
2018-08-28T10:06:46.714Z,2.25
2018-08-28T10:09:18.334Z,1.85
2018-08-28T10:11:58.469Z,2.30
2018-08-28T10:17:20.010Z,2.22
2018-08-28T10:19:48.781Z,2.00
2018-08-28T10:22:37.974Z,2.15
2018-08-28T10:25:11.893Z,2.02
2018-08-28T10:28:03.163Z,2.45
2018-08-28T10:30:43.634Z,2.83
2018-08-28T10:36:04.504Z,2.85
2018-08-28T10:38:38.553Z,2.60
2018-08-28T10:41:24.418Z,2.75
2018-08-28T10:43:58.460Z,2.77
2018-08-28T10:52:31.403Z,2.75
2018-08-28T10:55:05.357Z,2.87
2018-08-28T11:00:44.232Z,3.02
2018-08-28T11:03:24.706Z,2.60
2018-08-28T11:05:53.445Z,2.85
2018-08-28T11:08:32.290Z,3.22
2018-08-28T11:11:06.643Z,3.35
2018-08-28T11:13:46.912Z,3.22
2018-08-28T11:16:27.913Z,3.20
2018-08-28T11:18:56.402Z,3.17
2018-08-28T11:21:26.108Z,3.15
2018-08-28T11:23:55.122Z,2.80
2018-08-28T11:37:58.199Z,3.17
2018-08-28T11:40:27.307Z,2.87
2018-08-28T11:43:13.999Z,3.00
2018-08-28T11:46:02.987Z,3.05
2018-08-28T11:48:33.992Z,2.80
2018-08-28T11:51:08.368Z,2.85
2018-08-28T11:53:37.990Z,3.35
2018-08-28T11:58:59.309Z,3.25
2018-08-28T12:01:34.058Z,3.55
2018-08-28T12:04:05.411Z,3.27
2018-08-28T12:06:34.336Z,3.25
2018-08-28T12:09:05.021Z,2.90
2018-08-28T12:11:37.174Z,3.22
2018-08-28T12:14:11.566Z,3.52
2018-08-28T12:16:47.403Z,3.85
2018-08-28T12:19:16.637Z,3.55
2018-08-28T12:22:00.289Z,4.60
2018-08-28T12:24:34.710Z,2.75
2018-08-28T12:27:08.597Z,3.30
2018-08-28T12:29:37.668Z,3.45
2018-08-28T12:32:12.510Z,3.15
2018-08-28T12:34:50.505Z,3.00
2018-08-28T12:40:13.825Z,3.58
2018-08-28T12:42:42.757Z,3.45
2018-08-28T12:45:16.133Z,3.55
2018-08-28T12:50:36.266Z,6.40
2018-08-28T12:53:10.214Z,5.67
2018-08-28T12:55:41.480Z,5.15
2018-08-28T12:58:10.249Z,7.72
2018-08-28T13:00:46.529Z,3.25
2018-08-28T13:03:17.693Z,3.40
2018-08-28T13:05:46.681Z,3.10
2018-08-28T13:08:16.206Z,3.40
2018-08-28T13:10:58.069Z,3.15
2018-08-28T13:13:34.200Z,3.40
2018-08-28T13:16:09.072Z,2.92
2018-08-28T13:18:49.285Z,2.83
2018-08-28T13:21:32.482Z,3.52
2018-08-28T13:24:07.953Z,3.60
2018-08-28T13:26:53.798Z,3.20
2018-08-28T13:29:41.648Z,3.40
2018-08-28T13:32:22.053Z,3.25
2018-08-28T13:34:50.703Z,3.17
2018-08-28T13:37:19.448Z,2.52
2018-08-28T13:39:49.264Z,3.17
2018-08-28T13:42:30.188Z,2.90
2018-08-28T13:45:00.137Z,3.50
2018-08-28T13:47:29.218Z,3.08
2018-08-28T13:49:58.543Z,2.87
2018-08-28T13:52:28.152Z,3.80
2018-08-28T13:54:58.044Z,3.35
2018-08-28T13:57:27.511Z,3.75
2018-08-28T13:59:56.723Z,3.75
2018-08-28T14:02:26.211Z,3.47
2018-08-28T14:04:55.185Z,3.12
2018-08-28T14:07:24.496Z,3.70
2018-08-28T14:09:59.988Z,3.98
2018-08-28T14:12:34.241Z,3.33
2018-08-28T14:15:04.066Z,3.30
2018-08-28T14:17:36.017Z,3.35
2018-08-28T14:20:08.150Z,3.58
2018-08-28T14:22:37.209Z,3.58
2018-08-28T14:25:06.297Z,3.98
2018-08-28T14:27:35.139Z,4.17
2018-08-28T14:30:09.571Z,3.85
2018-08-28T14:32:44.233Z,3.95
2018-08-28T14:35:18.868Z,3.72
2018-08-28T14:37:47.393Z,3.42
2018-08-28T14:40:21.646Z,3.47
2018-08-28T14:42:50.168Z,3.60
2018-08-28T14:45:26.273Z,4.53
2018-08-28T14:48:00.915Z,4.67
2018-08-28T14:50:41.482Z,4.17
2018-08-28T14:53:13.473Z,4.45
2018-08-28T14:55:48.407Z,4.50
2018-08-28T14:58:35.307Z,4.12
2018-08-28T15:01:09.878Z,4.80
2018-08-28T15:03:52.694Z,4.78
2018-08-28T15:06:35.155Z,4.78
2018-08-28T15:09:25.849Z,4.72
2018-08-28T15:11:56.004Z,4.72
2018-08-28T15:14:27.701Z,4.50
2018-08-28T15:17:21.781Z,4.62
2018-08-28T15:20:11.513Z,4.78
2018-08-28T15:22:53.804Z,4.70
2018-08-28T15:28:14.800Z,4.45
2018-08-28T15:30:56.481Z,4.25
2018-08-28T15:33:28.145Z,4.45
2018-08-28T15:35:59.849Z,3.83
2018-08-28T15:38:42.566Z,4.35
2018-08-28T15:41:11.547Z,4.20
2018-08-28T15:43:56.618Z,3.75
2018-08-28T15:46:34.931Z,3.90
2018-08-28T15:49:06.728Z,3.90
2018-08-28T15:51:51.519Z,4.60
2018-08-28T15:54:59.096Z,4.55
2018-08-28T15:57:36.307Z,3.85
2018-08-28T16:00:15.635Z,3.92
2018-08-28T16:02:44.541Z,3.87
2018-08-28T16:05:32.275Z,3.80
2018-08-28T16:08:01.542Z,4.30
2018-08-28T16:10:33.538Z,4.50
2018-08-28T16:13:03.262Z,4.40
2018-08-28T16:18:32.987Z,5.45
2018-08-28T16:21:06.007Z,4.87
2018-08-28T16:23:38.251Z,5.28
2018-08-28T16:26:28.208Z,5.95
2018-08-28T16:29:02.121Z,4.70
2018-08-28T16:31:47.456Z,5.62
2018-08-28T16:34:17.491Z,5.37
2018-08-28T16:36:46.018Z,6.03
2018-08-28T16:39:24.045Z,5.42
2018-08-28T16:41:53.477Z,5.15
2018-08-28T16:44:29.831Z,5.37
2018-08-28T16:47:12.045Z,6.17
2018-08-28T16:49:46.337Z,6.15
2018-08-28T16:52:15.508Z,6.37
2018-08-28T16:54:52.075Z,7.20
2018-08-28T16:57:26.888Z,6.37
2018-08-28T17:02:48.040Z,6.30
2018-08-28T17:05:17.787Z,6.05
2018-08-28T17:08:01.526Z,6.30
2018-08-28T17:10:37.874Z,6.72
2018-08-28T17:13:11.504Z,6.20
2018-08-28T17:15:53.476Z,6.40
2018-08-28T17:18:22.405Z,6.50
2018-08-28T17:21:02.905Z,6.95
2018-08-28T17:23:37.278Z,6.47
2018-08-28T17:26:06.427Z,7.58
2018-08-28T17:28:38.405Z,7.22
2018-08-28T17:31:19.423Z,7.60
2018-08-28T17:36:53.081Z,6.83
2018-08-28T17:39:27.721Z,7.05
2018-08-28T17:42:02.342Z,6.60
2018-08-28T17:44:45.001Z,6.50
2018-08-28T17:47:21.397Z,7.05
2018-08-28T17:50:06.640Z,7.85
2018-08-28T17:52:40.651Z,6.50
2018-08-28T17:55:10.351Z,6.40
2018-08-28T17:57:40.742Z,5.45
2018-08-28T18:00:31.475Z,6.30
2018-08-28T18:03:05.899Z,6.25
2018-08-28T18:05:35.546Z,7.55
2018-08-28T18:08:10.481Z,7.10
2018-08-28T18:10:43.089Z,6.72
2018-08-28T18:13:21.354Z,6.37
2018-08-28T18:15:52.781Z,6.37
2018-08-28T18:18:39.865Z,7.50
2018-08-28T18:21:25.256Z,6.85
2018-08-28T18:24:09.976Z,6.83
2018-08-28T18:26:54.226Z,6.97
2018-08-28T18:29:28.184Z,6.53
2018-08-28T18:31:56.801Z,6.62
2018-08-28T18:34:37.663Z,7.17
2018-08-28T18:37:10.377Z,7.08
2018-08-28T18:39:51.790Z,6.95
2018-08-28T18:42:39.736Z,7.10
2018-08-28T18:45:09.069Z,6.85
2018-08-28T18:47:40.097Z,7.15
2018-08-28T18:50:23.201Z,7.10
2018-08-28T18:52:59.485Z,7.30
2018-08-28T18:55:51.394Z,7.42
2018-08-28T18:58:27.115Z,6.92
2018-08-28T19:00:56.121Z,7.53
2018-08-28T19:03:30.374Z,7.60
2018-08-28T19:06:00.592Z,7.70
2018-08-28T19:08:35.144Z,7.33
2018-08-28T19:11:09.245Z,6.92
2018-08-28T19:16:46.812Z,7.20
2018-08-28T19:19:20.679Z,7.42
2018-08-28T19:21:56.540Z,8.53
2018-08-28T19:24:31.318Z,7.42
2018-08-28T19:27:16.568Z,7.37
2018-08-28T19:29:45.020Z,8.10
2018-08-28T19:32:26.021Z,7.90
2018-08-28T19:34:59.918Z,7.45
2018-08-28T19:37:34.656Z,7.85
2018-08-28T19:40:03.930Z,7.67
2018-08-28T19:48:33.449Z,8.20
2018-08-28T19:51:09.449Z,8.73
2018-08-28T19:56:30.164Z,8.83
2018-08-28T19:59:10.871Z,8.78
2018-08-28T20:01:44.989Z,10.35
2018-08-28T20:04:22.721Z,9.48
2018-08-28T20:06:53.993Z,10.63
2018-08-28T20:09:40.527Z,9.93
2018-08-28T20:12:09.743Z,9.93
2018-08-28T20:14:38.615Z,9.53
2018-08-28T20:17:10.350Z,10.65
2018-08-28T20:19:50.957Z,10.75
2018-08-28T20:22:28.943Z,10.30
2018-08-28T20:25:04.749Z,10.10
2018-08-28T20:27:40.733Z,11.08
2018-08-28T20:30:14.653Z,11.60
2018-08-28T20:32:48.429Z,10.40
2018-08-28T20:35:16.751Z,11.88
2018-08-28T20:38:01.502Z,10.88
2018-08-28T20:40:42.569Z,11.05
2018-08-28T20:43:27.139Z,10.63
2018-08-28T20:46:01.806Z,10.75
2018-08-28T20:48:30.401Z,11.53
2018-08-28T20:51:02.348Z,11.38
2018-08-28T20:53:32.337Z,12.15
2018-08-28T20:56:04.412Z,11.45
2018-08-28T20:58:45.513Z,12.40
2018-08-28T21:01:14.405Z,11.83
2018-08-28T21:04:01.168Z,11.85
2018-08-28T21:06:30.633Z,12.80
2018-08-28T21:08:59.143Z,11.63
2018-08-28T21:11:28.066Z,11.50
2018-08-28T21:14:02.338Z,12.07
2018-08-28T21:16:48.400Z,13.08
2018-08-28T21:19:22.966Z,12.85
2018-08-28T21:21:56.941Z,13.25
2018-08-28T21:24:38.101Z,13.43
2018-08-28T21:27:06.795Z,13.35
2018-08-28T21:29:38.773Z,14.13
2018-08-28T21:35:07.492Z,13.50
2018-08-28T21:37:38.985Z,13.53
2018-08-28T21:40:07.605Z,13.88
2018-08-28T21:42:36.632Z,13.90
2018-08-28T21:45:06.397Z,13.93
2018-08-28T21:47:54.484Z,13.25
2018-08-28T21:50:36.457Z,13.80
2018-08-28T21:53:21.778Z,14.13
2018-08-28T21:55:57.550Z,14.33
2018-08-28T21:58:38.992Z,15.40
2018-08-28T22:01:11.831Z,15.08
2018-08-28T22:03:46.188Z,16.48
2018-08-28T22:06:35.158Z,14.98
2018-08-28T22:09:20.473Z,15.40
2018-08-28T22:11:54.859Z,14.43
2018-08-28T22:14:23.217Z,16.48
2018-08-28T22:16:53.146Z,16.10
2018-08-28T22:19:27.644Z,15.32
2018-08-28T22:21:59.244Z,15.30
2018-08-28T22:24:28.091Z,14.65
2018-08-28T22:27:12.432Z,15.58
2018-08-28T22:29:41.364Z,14.43
2018-08-28T22:32:15.625Z,15.00
2018-08-28T22:34:44.006Z,15.85
2018-08-28T22:37:13.073Z,16.50
2018-08-28T22:42:34.716Z,15.23
2018-08-28T22:45:06.501Z,15.43
2018-08-28T22:50:39.682Z,16.30
2018-08-28T22:56:13.846Z,17.65
2018-08-28T22:58:48.230Z,18.30
2018-08-28T23:01:22.148Z,19.35
2018-08-28T23:03:53.376Z,19.27
2018-08-28T23:06:27.585Z,18.57
2018-08-28T23:09:01.620Z,20.05
2018-08-28T23:11:37.450Z,20.70
2018-08-28T23:14:11.364Z,19.73
2018-08-28T23:16:43.500Z,21.12
2018-08-28T23:19:12.358Z,20.92
2018-08-28T23:21:48.930Z,19.17
2018-08-28T23:24:20.408Z,19.37
2018-08-28T23:27:08.501Z,19.30
2018-08-28T23:29:48.772Z,18.98
2018-08-28T23:38:14.362Z,19.87
2018-08-28T23:40:48.417Z,19.98
2018-08-28T23:49:17.239Z,21.35
2018-08-28T23:51:49.004Z,21.02
2018-08-28T23:54:34.394Z,20.37
2018-08-28T23:57:10.087Z,21.65
2018-08-28T23:59:47.744Z,20.82
